sensor_id;sensor_type;location;lat;lon;timestamp;P1;durP1;ratioP1;P2;durP2;ratioP2
16824;SDS011;8529;48.108;-1.706;2023-03-24T00:01:15;11.52;;;2.17;;
16824;SDS011;8529;48.108;-1.706;2023-03-24T00:03:44;7.78;;;2.00;;
16824;SDS011;8529;48.108;-1.706;2023-03-24T00:06:16;5.93;;;1.75;;
16824;SDS011;8529;48.108;-1.706;2023-03-24T00:08:46;8.68;;;2.00;;
16824;SDS011;8529;48.108;-1.706;2023-03-24T00:11:17;8.30;;;1.83;;
16824;SDS011;8529;48.108;-1.706;2023-03-24T00:13:47;11.13;;;2.33;;
16824;SDS011;8529;48.108;-1.706;2023-03-24T00:16:24;14.68;;;3.30;;
16824;SDS011;8529;48.108;-1.706;2023-03-24T00:18:53;10.32;;;2.00;;
16824;SDS011;8529;48.108;-1.706;2023-03-24T00:21:33;15.90;;;3.83;;
16824;SDS011;8529;48.108;-1.706;2023-03-24T00:24:08;7.75;;;1.92;;
16824;SDS011;8529;48.108;-1.706;2023-03-24T00:26:45;9.13;;;2.20;;
16824;SDS011;8529;48.108;-1.706;2023-03-24T00:29:15;17.02;;;2.92;;
16824;SDS011;8529;48.108;-1.706;2023-03-24T00:31:46;11.00;;;2.00;;
16824;SDS011;8529;48.108;-1.706;2023-03-24T00:34:17;9.38;;;2.03;;
16824;SDS011;8529;48.108;-1.706;2023-03-24T00:36:47;8.90;;;1.80;;
16824;SDS011;8529;48.108;-1.706;2023-03-24T00:39:28;9.10;;;2.58;;
16824;SDS011;8529;48.108;-1.706;2023-03-24T00:42:01;8.45;;;2.03;;
16824;SDS011;8529;48.108;-1.706;2023-03-24T00:44:30;9.18;;;1.77;;
16824;SDS011;8529;48.108;-1.706;2023-03-24T00:47:10;13.30;;;2.72;;
16824;SDS011;8529;48.108;-1.706;2023-03-24T00:49:42;13.80;;;2.72;;
16824;SDS011;8529;48.108;-1.706;2023-03-24T00:52:14;11.02;;;2.22;;
16824;SDS011;8529;48.108;-1.706;2023-03-24T00:54:46;10.45;;;2.05;;
16824;SDS011;8529;48.108;-1.706;2023-03-24T00:57:23;14.55;;;2.60;;
16824;SDS011;8529;48.108;-1.706;2023-03-24T00:59:52;14.05;;;2.40;;
16824;SDS011;8529;48.108;-1.706;2023-03-24T01:02:23;10.40;;;2.40;;
16824;SDS011;8529;48.108;-1.706;2023-03-24T01:04:57;9.23;;;2.08;;
16824;SDS011;8529;48.108;-1.706;2023-03-24T01:07:33;8.90;;;1.73;;
16824;SDS011;8529;48.108;-1.706;2023-03-24T01:10:09;11.40;;;2.22;;
16824;SDS011;8529;48.108;-1.706;2023-03-24T01:12:38;12.30;;;2.20;;
16824;SDS011;8529;48.108;-1.706;2023-03-24T01:15:16;8.43;;;2.00;;
16824;SDS011;8529;48.108;-1.706;2023-03-24T01:17:52;10.35;;;2.38;;
16824;SDS011;8529;48.108;-1.706;2023-03-24T01:20:23;10.40;;;2.58;;
16824;SDS011;8529;48.108;-1.706;2023-03-24T01:22:53;11.70;;;2.40;;
16824;SDS011;8529;48.108;-1.706;2023-03-24T01:25:24;10.40;;;2.05;;
16824;SDS011;8529;48.108;-1.706;2023-03-24T01:27:53;14.98;;;2.13;;
16824;SDS011;8529;48.108;-1.706;2023-03-24T01:30:22;9.35;;;2.15;;
16824;SDS011;8529;48.108;-1.706;2023-03-24T01:32:59;10.55;;;2.05;;
16824;SDS011;8529;48.108;-1.706;2023-03-24T01:35:35;16.60;;;2.97;;
16824;SDS011;8529;48.108;-1.706;2023-03-24T01:38:10;15.68;;;2.58;;
16824;SDS011;8529;48.108;-1.706;2023-03-24T01:40:39;9.20;;;2.15;;
16824;SDS011;8529;48.108;-1.706;2023-03-24T01:43:09;14.48;;;2.65;;
16824;SDS011;8529;48.108;-1.706;2023-03-24T01:45:50;8.65;;;1.88;;
16824;SDS011;8529;48.108;-1.706;2023-03-24T01:48:27;11.48;;;2.00;;
16824;SDS011;8529;48.108;-1.706;2023-03-24T01:51:04;12.30;;;2.40;;
16824;SDS011;8529;48.108;-1.706;2023-03-24T01:53:36;11.00;;;3.13;;
16824;SDS011;8529;48.108;-1.706;2023-03-24T01:56:06;15.48;;;3.10;;
16824;SDS011;8529;48.108;-1.706;2023-03-24T01:58:37;18.00;;;3.40;;
16824;SDS011;8529;48.108;-1.706;2023-03-24T02:01:08;12.05;;;3.25;;
16824;SDS011;8529;48.108;-1.706;2023-03-24T02:03:38;8.77;;;2.17;;
16824;SDS011;8529;48.108;-1.706;2023-03-24T02:06:08;12.48;;;2.15;;
16824;SDS011;8529;48.108;-1.706;2023-03-24T02:08:47;10.57;;;2.38;;
16824;SDS011;8529;48.108;-1.706;2023-03-24T02:11:22;16.25;;;2.83;;
16824;SDS011;8529;48.108;-1.706;2023-03-24T02:13:57;9.68;;;2.15;;
16824;SDS011;8529;48.108;-1.706;2023-03-24T02:16:29;11.95;;;2.70;;
16824;SDS011;8529;48.108;-1.706;2023-03-24T02:22:59;15.40;;;3.35;;
16824;SDS011;8529;48.108;-1.706;2023-03-24T02:28:57;11.50;;;2.10;;
16824;SDS011;8529;48.108;-1.706;2023-03-24T02:31:47;10.98;;;2.47;;
16824;SDS011;8529;48.108;-1.706;2023-03-24T02:40:40;12.73;;;2.45;;
16824;SDS011;8529;48.108;-1.706;2023-03-24T02:46:08;12.15;;;2.78;;
16824;SDS011;8529;48.108;-1.706;2023-03-24T02:48:44;10.48;;;2.63;;
16824;SDS011;8529;48.108;-1.706;2023-03-24T02:51:29;10.80;;;2.45;;
16824;SDS011;8529;48.108;-1.706;2023-03-24T02:54:02;7.82;;;2.33;;
16824;SDS011;8529;48.108;-1.706;2023-03-24T02:56:36;12.57;;;3.10;;
16824;SDS011;8529;48.108;-1.706;2023-03-24T02:59:10;12.00;;;2.95;;
16824;SDS011;8529;48.108;-1.706;2023-03-24T03:01:47;11.85;;;2.33;;
16824;SDS011;8529;48.108;-1.706;2023-03-24T03:04:23;12.90;;;2.63;;
16824;SDS011;8529;48.108;-1.706;2023-03-24T03:06:58;15.68;;;2.75;;
16824;SDS011;8529;48.108;-1.706;2023-03-24T03:09:30;11.02;;;3.08;;
16824;SDS011;8529;48.108;-1.706;2023-03-24T03:12:01;16.08;;;3.58;;
16824;SDS011;8529;48.108;-1.706;2023-03-24T03:14:48;12.02;;;2.47;;
16824;SDS011;8529;48.108;-1.706;2023-03-24T03:17:25;15.57;;;3.15;;
16824;SDS011;8529;48.108;-1.706;2023-03-24T03:20:03;15.07;;;2.80;;
16824;SDS011;8529;48.108;-1.706;2023-03-24T03:22:39;13.25;;;2.40;;
16824;SDS011;8529;48.108;-1.706;2023-03-24T03:25:14;22.58;;;3.13;;
16824;SDS011;8529;48.108;-1.706;2023-03-24T03:27:52;17.92;;;2.22;;
16824;SDS011;8529;48.108;-1.706;2023-03-24T03:30:25;11.60;;;2.38;;
16824;SDS011;8529;48.108;-1.706;2023-03-24T03:32:58;12.10;;;2.58;;
16824;SDS011;8529;48.108;-1.706;2023-03-24T03:35:34;20.88;;;3.08;;
16824;SDS011;8529;48.108;-1.706;2023-03-24T03:38:07;12.40;;;2.58;;
16824;SDS011;8529;48.108;-1.706;2023-03-24T03:40:45;14.13;;;3.65;;
16824;SDS011;8529;48.108;-1.706;2023-03-24T03:43:18;17.55;;;2.88;;
16824;SDS011;8529;48.108;-1.706;2023-03-24T03:45:51;18.40;;;3.88;;
16824;SDS011;8529;48.108;-1.706;2023-03-24T03:48:18;12.13;;;2.75;;
16824;SDS011;8529;48.108;-1.706;2023-03-24T03:50:50;12.98;;;2.97;;
16824;SDS011;8529;48.108;-1.706;2023-03-24T03:53:22;10.32;;;2.10;;
16824;SDS011;8529;48.108;-1.706;2023-03-24T03:55:54;19.23;;;3.20;;
16824;SDS011;8529;48.108;-1.706;2023-03-24T03:58:26;23.17;;;3.33;;
16824;SDS011;8529;48.108;-1.706;2023-03-24T04:00:55;16.63;;;3.65;;
16824;SDS011;8529;48.108;-1.706;2023-03-24T04:03:31;19.23;;;3.63;;
16824;SDS011;8529;48.108;-1.706;2023-03-24T04:06:21;15.55;;;2.83;;
16824;SDS011;8529;48.108;-1.706;2023-03-24T04:09:09;10.43;;;3.40;;
16824;SDS011;8529;48.108;-1.706;2023-03-24T04:12:00;17.88;;;4.03;;
16824;SDS011;8529;48.108;-1.706;2023-03-24T04:14:48;18.65;;;4.00;;
16824;SDS011;8529;48.108;-1.706;2023-03-24T04:17:42;13.13;;;3.35;;
16824;SDS011;8529;48.108;-1.706;2023-03-24T04:20:18;12.80;;;2.95;;
16824;SDS011;8529;48.108;-1.706;2023-03-24T04:23:00;14.13;;;3.55;;
16824;SDS011;8529;48.108;-1.706;2023-03-24T04:25:39;13.63;;;2.80;;
16824;SDS011;8529;48.108;-1.706;2023-03-24T04:28:24;12.55;;;3.00;;
16824;SDS011;8529;48.108;-1.706;2023-03-24T04:30:58;18.42;;;4.05;;
16824;SDS011;8529;48.108;-1.706;2023-03-24T04:33:36;16.92;;;3.03;;
16824;SDS011;8529;48.108;-1.706;2023-03-24T04:36:10;22.40;;;4.45;;
16824;SDS011;8529;48.108;-1.706;2023-03-24T04:38:44;12.88;;;3.30;;
16824;SDS011;8529;48.108;-1.706;2023-03-24T04:41:17;20.02;;;3.55;;
16824;SDS011;8529;48.108;-1.706;2023-03-24T04:43:51;18.52;;;4.05;;
16824;SDS011;8529;48.108;-1.706;2023-03-24T04:46:23;19.80;;;3.35;;
16824;SDS011;8529;48.108;-1.706;2023-03-24T04:48:51;21.70;;;4.15;;
16824;SDS011;8529;48.108;-1.706;2023-03-24T04:51:29;27.60;;;5.28;;
16824;SDS011;8529;48.108;-1.706;2023-03-24T04:54:01;16.98;;;3.67;;
16824;SDS011;8529;48.108;-1.706;2023-03-24T04:56:35;22.52;;;3.88;;
16824;SDS011;8529;48.108;-1.706;2023-03-24T04:59:06;17.67;;;3.10;;
16824;SDS011;8529;48.108;-1.706;2023-03-24T05:01:38;20.52;;;4.18;;
16824;SDS011;8529;48.108;-1.706;2023-03-24T05:04:05;15.90;;;3.20;;
16824;SDS011;8529;48.108;-1.706;2023-03-24T05:06:36;19.80;;;3.80;;
16824;SDS011;8529;48.108;-1.706;2023-03-24T05:09:02;17.73;;;4.63;;
16824;SDS011;8529;48.108;-1.706;2023-03-24T05:11:30;18.77;;;3.65;;
16824;SDS011;8529;48.108;-1.706;2023-03-24T05:14:02;16.45;;;3.65;;
16824;SDS011;8529;48.108;-1.706;2023-03-24T05:16:31;19.40;;;3.95;;
16824;SDS011;8529;48.108;-1.706;2023-03-24T05:19:05;24.83;;;4.15;;
16824;SDS011;8529;48.108;-1.706;2023-03-24T05:21:35;19.42;;;3.58;;
16824;SDS011;8529;48.108;-1.706;2023-03-24T05:24:11;16.70;;;4.22;;
16824;SDS011;8529;48.108;-1.706;2023-03-24T05:26:38;23.23;;;3.80;;
16824;SDS011;8529;48.108;-1.706;2023-03-24T05:29:05;22.33;;;4.20;;
16824;SDS011;8529;48.108;-1.706;2023-03-24T05:31:34;15.95;;;3.70;;
16824;SDS011;8529;48.108;-1.706;2023-03-24T05:34:01;20.00;;;3.25;;
16824;SDS011;8529;48.108;-1.706;2023-03-24T05:36:39;16.33;;;4.05;;
16824;SDS011;8529;48.108;-1.706;2023-03-24T05:39:06;16.15;;;4.05;;
16824;SDS011;8529;48.108;-1.706;2023-03-24T05:41:37;17.88;;;3.33;;
16824;SDS011;8529;48.108;-1.706;2023-03-24T05:44:04;19.77;;;3.78;;
16824;SDS011;8529;48.108;-1.706;2023-03-24T05:46:31;21.77;;;5.18;;
16824;SDS011;8529;48.108;-1.706;2023-03-24T05:48:59;23.33;;;3.70;;
16824;SDS011;8529;48.108;-1.706;2023-03-24T05:51:26;23.75;;;4.18;;
16824;SDS011;8529;48.108;-1.706;2023-03-24T05:54:01;15.50;;;3.38;;
16824;SDS011;8529;48.108;-1.706;2023-03-24T05:56:35;19.95;;;3.08;;
16824;SDS011;8529;48.108;-1.706;2023-03-24T05:59:04;20.48;;;3.67;;
16824;SDS011;8529;48.108;-1.706;2023-03-24T06:01:37;18.90;;;3.40;;
16824;SDS011;8529;48.108;-1.706;2023-03-24T06:04:11;18.02;;;3.45;;
16824;SDS011;8529;48.108;-1.706;2023-03-24T06:06:44;11.13;;;3.35;;
16824;SDS011;8529;48.108;-1.706;2023-03-24T06:09:15;18.10;;;4.15;;
16824;SDS011;8529;48.108;-1.706;2023-03-24T06:11:45;13.82;;;3.35;;
16824;SDS011;8529;48.108;-1.706;2023-03-24T06:14:20;19.10;;;4.72;;
16824;SDS011;8529;48.108;-1.706;2023-03-24T06:16:47;18.92;;;3.80;;
16824;SDS011;8529;48.108;-1.706;2023-03-24T06:19:18;14.63;;;3.10;;
16824;SDS011;8529;48.108;-1.706;2023-03-24T06:21:51;21.55;;;3.70;;
16824;SDS011;8529;48.108;-1.706;2023-03-24T06:24:19;18.10;;;3.10;;
16824;SDS011;8529;48.108;-1.706;2023-03-24T06:26:48;22.10;;;3.85;;
16824;SDS011;8529;48.108;-1.706;2023-03-24T06:29:18;12.70;;;4.00;;
16824;SDS011;8529;48.108;-1.706;2023-03-24T06:31:46;14.20;;;3.50;;
16824;SDS011;8529;48.108;-1.706;2023-03-24T06:34:19;17.75;;;3.72;;
16824;SDS011;8529;48.108;-1.706;2023-03-24T06:36:50;15.73;;;3.08;;
16824;SDS011;8529;48.108;-1.706;2023-03-24T06:39:21;21.90;;;3.28;;
16824;SDS011;8529;48.108;-1.706;2023-03-24T06:41:49;17.95;;;4.20;;
16824;SDS011;8529;48.108;-1.706;2023-03-24T06:44:16;18.73;;;3.53;;
16824;SDS011;8529;48.108;-1.706;2023-03-24T06:46:45;19.65;;;4.60;;
16824;SDS011;8529;48.108;-1.706;2023-03-24T06:49:19;11.95;;;3.25;;
16824;SDS011;8529;48.108;-1.706;2023-03-24T06:51:49;23.48;;;5.10;;
16824;SDS011;8529;48.108;-1.706;2023-03-24T06:54:16;12.13;;;3.47;;
16824;SDS011;8529;48.108;-1.706;2023-03-24T06:56:47;16.35;;;3.53;;
16824;SDS011;8529;48.108;-1.706;2023-03-24T06:59:15;23.55;;;4.18;;
16824;SDS011;8529;48.108;-1.706;2023-03-24T07:01:50;19.20;;;3.22;;
16824;SDS011;8529;48.108;-1.706;2023-03-24T07:04:19;16.77;;;3.78;;
16824;SDS011;8529;48.108;-1.706;2023-03-24T07:06:51;13.75;;;3.28;;
16824;SDS011;8529;48.108;-1.706;2023-03-24T07:09:23;22.48;;;4.05;;
16824;SDS011;8529;48.108;-1.706;2023-03-24T07:11:52;18.58;;;3.92;;
16824;SDS011;8529;48.108;-1.706;2023-03-24T07:14:26;23.60;;;4.30;;
16824;SDS011;8529;48.108;-1.706;2023-03-24T07:16:55;19.73;;;4.40;;
16824;SDS011;8529;48.108;-1.706;2023-03-24T07:19:25;18.17;;;3.92;;
16824;SDS011;8529;48.108;-1.706;2023-03-24T07:21:52;22.95;;;5.03;;
16824;SDS011;8529;48.108;-1.706;2023-03-24T07:24:19;16.92;;;4.38;;
16824;SDS011;8529;48.108;-1.706;2023-03-24T07:26:50;21.02;;;4.90;;
16824;SDS011;8529;48.108;-1.706;2023-03-24T07:29:18;18.08;;;4.05;;
16824;SDS011;8529;48.108;-1.706;2023-03-24T07:31:45;29.15;;;4.70;;
16824;SDS011;8529;48.108;-1.706;2023-03-24T07:34:14;25.90;;;4.30;;
16824;SDS011;8529;48.108;-1.706;2023-03-24T07:36:44;22.50;;;4.95;;
16824;SDS011;8529;48.108;-1.706;2023-03-24T07:39:14;24.33;;;5.50;;
16824;SDS011;8529;48.108;-1.706;2023-03-24T07:41:43;16.30;;;3.50;;
16824;SDS011;8529;48.108;-1.706;2023-03-24T07:44:20;19.42;;;4.82;;
16824;SDS011;8529;48.108;-1.706;2023-03-24T07:46:47;23.00;;;4.00;;
16824;SDS011;8529;48.108;-1.706;2023-03-24T07:49:14;19.58;;;4.30;;
16824;SDS011;8529;48.108;-1.706;2023-03-24T07:51:43;16.55;;;3.47;;
16824;SDS011;8529;48.108;-1.706;2023-03-24T07:54:12;16.17;;;3.33;;
16824;SDS011;8529;48.108;-1.706;2023-03-24T07:56:40;17.27;;;3.67;;
16824;SDS011;8529;48.108;-1.706;2023-03-24T07:59:09;14.80;;;3.55;;
16824;SDS011;8529;48.108;-1.706;2023-03-24T08:01:44;13.88;;;3.38;;
16824;SDS011;8529;48.108;-1.706;2023-03-24T08:04:21;13.20;;;3.70;;
16824;SDS011;8529;48.108;-1.706;2023-03-24T08:06:51;17.50;;;3.35;;
16824;SDS011;8529;48.108;-1.706;2023-03-24T08:09:17;15.10;;;3.40;;
16824;SDS011;8529;48.108;-1.706;2023-03-24T08:11:50;13.98;;;2.72;;
16824;SDS011;8529;48.108;-1.706;2023-03-24T08:14:19;21.65;;;2.88;;
16824;SDS011;8529;48.108;-1.706;2023-03-24T08:16:49;13.13;;;2.78;;
16824;SDS011;8529;48.108;-1.706;2023-03-24T08:19:21;15.15;;;2.58;;
16824;SDS011;8529;48.108;-1.706;2023-03-24T08:21:55;18.52;;;3.03;;
16824;SDS011;8529;48.108;-1.706;2023-03-24T08:24:27;14.20;;;2.35;;
16824;SDS011;8529;48.108;-1.706;2023-03-24T08:26:53;14.05;;;2.58;;
16824;SDS011;8529;48.108;-1.706;2023-03-24T08:29:27;6.32;;;2.25;;
16824;SDS011;8529;48.108;-1.706;2023-03-24T08:31:56;16.08;;;2.53;;
16824;SDS011;8529;48.108;-1.706;2023-03-24T08:34:35;8.77;;;1.90;;
16824;SDS011;8529;48.108;-1.706;2023-03-24T08:37:02;15.68;;;2.67;;
16824;SDS011;8529;48.108;-1.706;2023-03-24T08:39:39;13.75;;;2.47;;
16824;SDS011;8529;48.108;-1.706;2023-03-24T08:42:11;14.15;;;3.28;;
16824;SDS011;8529;48.108;-1.706;2023-03-24T08:44:38;14.95;;;3.50;;
16824;SDS011;8529;48.108;-1.706;2023-03-24T08:47:07;17.17;;;3.15;;
16824;SDS011;8529;48.108;-1.706;2023-03-24T08:49:38;15.32;;;3.20;;
16824;SDS011;8529;48.108;-1.706;2023-03-24T08:52:07;15.40;;;3.03;;
16824;SDS011;8529;48.108;-1.706;2023-03-24T08:54:37;13.68;;;2.60;;
16824;SDS011;8529;48.108;-1.706;2023-03-24T08:57:04;14.88;;;3.10;;
16824;SDS011;8529;48.108;-1.706;2023-03-24T08:59:30;15.82;;;2.85;;
16824;SDS011;8529;48.108;-1.706;2023-03-24T09:02:02;16.85;;;2.92;;
16824;SDS011;8529;48.108;-1.706;2023-03-24T09:04:32;18.38;;;3.83;;
16824;SDS011;8529;48.108;-1.706;2023-03-24T09:07:02;20.85;;;3.85;;
16824;SDS011;8529;48.108;-1.706;2023-03-24T09:09:34;13.90;;;2.88;;
16824;SDS011;8529;48.108;-1.706;2023-03-24T09:12:06;17.60;;;3.03;;
16824;SDS011;8529;48.108;-1.706;2023-03-24T09:14:33;11.70;;;2.92;;
16824;SDS011;8529;48.108;-1.706;2023-03-24T09:17:00;11.98;;;2.70;;
16824;SDS011;8529;48.108;-1.706;2023-03-24T09:19:27;19.05;;;2.80;;
16824;SDS011;8529;48.108;-1.706;2023-03-24T09:22:07;10.75;;;2.72;;
16824;SDS011;8529;48.108;-1.706;2023-03-24T09:24:36;10.95;;;2.42;;
16824;SDS011;8529;48.108;-1.706;2023-03-24T09:27:04;8.70;;;2.58;;
16824;SDS011;8529;48.108;-1.706;2023-03-24T09:29:33;12.93;;;2.80;;
16824;SDS011;8529;48.108;-1.706;2023-03-24T09:32:00;10.10;;;2.45;;
16824;SDS011;8529;48.108;-1.706;2023-03-24T09:34:27;16.85;;;3.90;;
16824;SDS011;8529;48.108;-1.706;2023-03-24T09:36:54;17.52;;;2.78;;
16824;SDS011;8529;48.108;-1.706;2023-03-24T09:39:24;9.32;;;2.60;;
16824;SDS011;8529;48.108;-1.706;2023-03-24T09:41:53;15.02;;;3.05;;
16824;SDS011;8529;48.108;-1.706;2023-03-24T09:44:22;15.40;;;3.42;;
16824;SDS011;8529;48.108;-1.706;2023-03-24T09:47:00;13.50;;;2.80;;
16824;SDS011;8529;48.108;-1.706;2023-03-24T09:49:34;11.85;;;2.75;;
16824;SDS011;8529;48.108;-1.706;2023-03-24T09:52:06;15.18;;;2.75;;
16824;SDS011;8529;48.108;-1.706;2023-03-24T09:54:52;14.23;;;2.92;;
16824;SDS011;8529;48.108;-1.706;2023-03-24T09:57:28;11.55;;;1.75;;
16824;SDS011;8529;48.108;-1.706;2023-03-24T10:00:11;9.10;;;2.08;;
16824;SDS011;8529;48.108;-1.706;2023-03-24T10:02:42;10.85;;;2.40;;
16824;SDS011;8529;48.108;-1.706;2023-03-24T10:05:12;10.57;;;2.10;;
16824;SDS011;8529;48.108;-1.706;2023-03-24T10:07:42;12.65;;;2.60;;
16824;SDS011;8529;48.108;-1.706;2023-03-24T10:10:28;10.32;;;2.03;;
16824;SDS011;8529;48.108;-1.706;2023-03-24T10:13:05;9.40;;;2.00;;
16824;SDS011;8529;48.108;-1.706;2023-03-24T10:15:34;14.13;;;2.65;;
16824;SDS011;8529;48.108;-1.706;2023-03-24T10:18:12;10.27;;;2.08;;
16824;SDS011;8529;48.108;-1.706;2023-03-24T10:20:58;13.15;;;2.53;;
16824;SDS011;8529;48.108;-1.706;2023-03-24T10:23:33;14.85;;;2.30;;
16824;SDS011;8529;48.108;-1.706;2023-03-24T10:26:12;7.53;;;2.10;;
16824;SDS011;8529;48.108;-1.706;2023-03-24T10:28:49;8.73;;;2.33;;
16824;SDS011;8529;48.108;-1.706;2023-03-24T10:31:20;9.25;;;2.17;;
16824;SDS011;8529;48.108;-1.706;2023-03-24T10:33:54;8.70;;;1.92;;
16824;SDS011;8529;48.108;-1.706;2023-03-24T10:36:25;9.88;;;3.78;;
16824;SDS011;8529;48.108;-1.706;2023-03-24T10:38:53;9.43;;;2.40;;
16824;SDS011;8529;48.108;-1.706;2023-03-24T10:41:27;6.63;;;1.85;;
16824;SDS011;8529;48.108;-1.706;2023-03-24T10:43:57;8.82;;;2.75;;
16824;SDS011;8529;48.108;-1.706;2023-03-24T10:46:26;10.88;;;2.60;;
16824;SDS011;8529;48.108;-1.706;2023-03-24T10:49:07;13.35;;;2.10;;
16824;SDS011;8529;48.108;-1.706;2023-03-24T10:51:43;8.38;;;2.20;;
16824;SDS011;8529;48.108;-1.706;2023-03-24T10:54:14;9.95;;;1.55;;
16824;SDS011;8529;48.108;-1.706;2023-03-24T10:57:03;8.43;;;1.45;;
16824;SDS011;8529;48.108;-1.706;2023-03-24T10:59:34;3.78;;;1.05;;
16824;SDS011;8529;48.108;-1.706;2023-03-24T11:02:17;7.55;;;1.15;;
16824;SDS011;8529;48.108;-1.706;2023-03-24T11:04:49;5.25;;;1.25;;
16824;SDS011;8529;48.108;-1.706;2023-03-24T11:07:28;9.13;;;1.83;;
16824;SDS011;8529;48.108;-1.706;2023-03-24T11:09:59;8.20;;;1.42;;
16824;SDS011;8529;48.108;-1.706;2023-03-24T11:12:34;5.68;;;1.40;;
16824;SDS011;8529;48.108;-1.706;2023-03-24T11:17:52;6.70;;;1.90;;
16824;SDS011;8529;48.108;-1.706;2023-03-24T11:20:29;14.93;;;2.45;;
16824;SDS011;8529;48.108;-1.706;2023-03-24T11:22:58;4.88;;;1.52;;
16824;SDS011;8529;48.108;-1.706;2023-03-24T11:25:30;12.68;;;2.00;;
16824;SDS011;8529;48.108;-1.706;2023-03-24T11:28:04;15.70;;;2.35;;
16824;SDS011;8529;48.108;-1.706;2023-03-24T11:30:43;15.10;;;2.42;;
16824;SDS011;8529;48.108;-1.706;2023-03-24T11:33:13;11.10;;;2.05;;
16824;SDS011;8529;48.108;-1.706;2023-03-24T11:35:47;7.15;;;1.58;;
16824;SDS011;8529;48.108;-1.706;2023-03-24T11:38:26;10.55;;;2.22;;
16824;SDS011;8529;48.108;-1.706;2023-03-24T11:40:57;10.82;;;2.17;;
16824;SDS011;8529;48.108;-1.706;2023-03-24T11:43:31;13.93;;;2.08;;
16824;SDS011;8529;48.108;-1.706;2023-03-24T11:46:04;10.63;;;2.50;;
16824;SDS011;8529;48.108;-1.706;2023-03-24T11:48:36;9.00;;;1.90;;
16824;SDS011;8529;48.108;-1.706;2023-03-24T11:51:12;13.95;;;2.63;;
16824;SDS011;8529;48.108;-1.706;2023-03-24T11:53:44;8.88;;;2.53;;
16824;SDS011;8529;48.108;-1.706;2023-03-24T11:56:15;13.63;;;2.42;;
16824;SDS011;8529;48.108;-1.706;2023-03-24T11:58:48;11.02;;;2.40;;
16824;SDS011;8529;48.108;-1.706;2023-03-24T12:01:23;10.32;;;1.92;;
16824;SDS011;8529;48.108;-1.706;2023-03-24T12:04:03;11.27;;;2.60;;
16824;SDS011;8529;48.108;-1.706;2023-03-24T12:06:50;14.85;;;3.80;;
16824;SDS011;8529;48.108;-1.706;2023-03-24T12:09:29;15.68;;;2.60;;
16824;SDS011;8529;48.108;-1.706;2023-03-24T12:12:04;13.70;;;2.80;;
16824;SDS011;8529;48.108;-1.706;2023-03-24T12:14:57;9.02;;;2.55;;
16824;SDS011;8529;48.108;-1.706;2023-03-24T12:17:57;11.60;;;2.28;;
16824;SDS011;8529;48.108;-1.706;2023-03-24T12:20:51;11.93;;;2.20;;
16824;SDS011;8529;48.108;-1.706;2023-03-24T12:23:33;11.85;;;2.08;;
16824;SDS011;8529;48.108;-1.706;2023-03-24T12:26:18;10.63;;;2.33;;
16824;SDS011;8529;48.108;-1.706;2023-03-24T12:31:59;7.68;;;1.73;;
16824;SDS011;8529;48.108;-1.706;2023-03-24T12:37:36;9.23;;;1.67;;
16824;SDS011;8529;48.108;-1.706;2023-03-24T12:40:32;8.55;;;1.75;;
16824;SDS011;8529;48.108;-1.706;2023-03-24T12:43:22;6.95;;;1.60;;
16824;SDS011;8529;48.108;-1.706;2023-03-24T12:45:58;7.88;;;1.88;;
16824;SDS011;8529;48.108;-1.706;2023-03-24T12:51:34;8.50;;;1.63;;
16824;SDS011;8529;48.108;-1.706;2023-03-24T12:54:14;9.10;;;2.25;;
16824;SDS011;8529;48.108;-1.706;2023-03-24T12:56:52;5.13;;;1.55;;
16824;SDS011;8529;48.108;-1.706;2023-03-24T12:59:25;11.20;;;2.00;;
16824;SDS011;8529;48.108;-1.706;2023-03-24T13:02:03;9.23;;;2.20;;
16824;SDS011;8529;48.108;-1.706;2023-03-24T13:04:45;9.70;;;2.00;;
16824;SDS011;8529;48.108;-1.706;2023-03-24T13:07:16;9.80;;;2.13;;
16824;SDS011;8529;48.108;-1.706;2023-03-24T13:09:50;8.68;;;2.17;;
16824;SDS011;8529;48.108;-1.706;2023-03-24T13:12:20;13.15;;;2.60;;
16824;SDS011;8529;48.108;-1.706;2023-03-24T13:14:54;9.57;;;2.65;;
16824;SDS011;8529;48.108;-1.706;2023-03-24T13:17:29;18.63;;;3.10;;
16824;SDS011;8529;48.108;-1.706;2023-03-24T13:20:01;11.43;;;2.30;;
16824;SDS011;8529;48.108;-1.706;2023-03-24T13:22:32;10.82;;;2.00;;
16824;SDS011;8529;48.108;-1.706;2023-03-24T13:25:01;11.80;;;2.63;;
16824;SDS011;8529;48.108;-1.706;2023-03-24T13:27:34;11.05;;;2.72;;
16824;SDS011;8529;48.108;-1.706;2023-03-24T13:30:15;11.00;;;2.40;;
16824;SDS011;8529;48.108;-1.706;2023-03-24T13:32:56;9.77;;;1.90;;
16824;SDS011;8529;48.108;-1.706;2023-03-24T13:35:33;14.82;;;2.30;;
16824;SDS011;8529;48.108;-1.706;2023-03-24T13:38:12;11.38;;;2.13;;
16824;SDS011;8529;48.108;-1.706;2023-03-24T13:40:52;8.77;;;2.70;;
16824;SDS011;8529;48.108;-1.706;2023-03-24T13:43:23;11.30;;;3.10;;
16824;SDS011;8529;48.108;-1.706;2023-03-24T13:45:59;14.48;;;2.55;;
16824;SDS011;8529;48.108;-1.706;2023-03-24T13:48:31;8.00;;;1.65;;
16824;SDS011;8529;48.108;-1.706;2023-03-24T13:51:12;9.02;;;2.00;;
16824;SDS011;8529;48.108;-1.706;2023-03-24T13:53:48;6.15;;;1.33;;
16824;SDS011;8529;48.108;-1.706;2023-03-24T13:56:26;8.82;;;1.77;;
16824;SDS011;8529;48.108;-1.706;2023-03-24T14:02:21;5.75;;;1.60;;
16824;SDS011;8529;48.108;-1.706;2023-03-24T14:05:28;5.53;;;2.17;;
16824;SDS011;8529;48.108;-1.706;2023-03-24T14:08:11;10.85;;;1.70;;
16824;SDS011;8529;48.108;-1.706;2023-03-24T14:10:46;8.85;;;1.85;;
16824;SDS011;8529;48.108;-1.706;2023-03-24T14:13:21;7.35;;;1.60;;
16824;SDS011;8529;48.108;-1.706;2023-03-24T14:21:52;3.15;;;0.73;;
16824;SDS011;8529;48.108;-1.706;2023-03-24T14:24:25;3.55;;;0.50;;
16824;SDS011;8529;48.108;-1.706;2023-03-24T14:26:56;4.72;;;1.00;;
16824;SDS011;8529;48.108;-1.706;2023-03-24T14:29:38;3.13;;;0.85;;
16824;SDS011;8529;48.108;-1.706;2023-03-24T14:32:15;5.88;;;0.90;;
16824;SDS011;8529;48.108;-1.706;2023-03-24T14:34:54;4.00;;;1.20;;
16824;SDS011;8529;48.108;-1.706;2023-03-24T14:37:23;7.00;;;1.45;;
16824;SDS011;8529;48.108;-1.706;2023-03-24T14:39:59;6.15;;;0.90;;
16824;SDS011;8529;48.108;-1.706;2023-03-24T14:42:51;2.88;;;0.70;;
16824;SDS011;8529;48.108;-1.706;2023-03-24T14:45:50;2.80;;;0.80;;
16824;SDS011;8529;48.108;-1.706;2023-03-24T14:48:28;3.03;;;1.48;;
16824;SDS011;8529;48.108;-1.706;2023-03-24T14:51:02;3.92;;;0.77;;
16824;SDS011;8529;48.108;-1.706;2023-03-24T14:53:39;2.83;;;1.00;;
16824;SDS011;8529;48.108;-1.706;2023-03-24T14:56:10;4.03;;;0.88;;
16824;SDS011;8529;48.108;-1.706;2023-03-24T14:58:43;2.10;;;1.00;;
16824;SDS011;8529;48.108;-1.706;2023-03-24T15:01:15;2.83;;;0.57;;
16824;SDS011;8529;48.108;-1.706;2023-03-24T15:03:44;3.53;;;0.65;;
16824;SDS011;8529;48.108;-1.706;2023-03-24T15:06:21;3.03;;;0.60;;
16824;SDS011;8529;48.108;-1.706;2023-03-24T15:08:49;4.75;;;0.85;;
16824;SDS011;8529;48.108;-1.706;2023-03-24T15:11:19;2.22;;;0.73;;
16824;SDS011;8529;48.108;-1.706;2023-03-24T15:13:53;4.63;;;1.67;;
16824;SDS011;8529;48.108;-1.706;2023-03-24T15:16:25;2.15;;;0.75;;
16824;SDS011;8529;48.108;-1.706;2023-03-24T15:18:55;4.68;;;1.20;;
16824;SDS011;8529;48.108;-1.706;2023-03-24T15:21:26;4.03;;;0.80;;
16824;SDS011;8529;48.108;-1.706;2023-03-24T15:23:58;2.97;;;0.90;;
16824;SDS011;8529;48.108;-1.706;2023-03-24T15:26:29;3.38;;;0.93;;
16824;SDS011;8529;48.108;-1.706;2023-03-24T15:28:58;2.97;;;0.70;;
16824;SDS011;8529;48.108;-1.706;2023-03-24T15:31:26;6.93;;;1.27;;
16824;SDS011;8529;48.108;-1.706;2023-03-24T15:34:01;3.55;;;0.80;;
16824;SDS011;8529;48.108;-1.706;2023-03-24T15:36:43;5.35;;;0.90;;
16824;SDS011;8529;48.108;-1.706;2023-03-24T15:39:15;3.83;;;1.33;;
16824;SDS011;8529;48.108;-1.706;2023-03-24T15:41:45;4.07;;;1.33;;
16824;SDS011;8529;48.108;-1.706;2023-03-24T15:44:22;9.32;;;1.25;;
16824;SDS011;8529;48.108;-1.706;2023-03-24T15:46:59;6.95;;;1.60;;
16824;SDS011;8529;48.108;-1.706;2023-03-24T15:49:45;7.13;;;1.52;;
16824;SDS011;8529;48.108;-1.706;2023-03-24T15:52:27;7.13;;;2.05;;
16824;SDS011;8529;48.108;-1.706;2023-03-24T15:55:05;10.05;;;1.70;;